Terminal Aerodrome Forecast
Issued by NWS Northern Indiana

Home | Current Version | Previous Version | Graphics & Text | Print | Product List | Glossary On
Versions: 1 2 3 4 5 6 7 8 9 10 11 12 13 14
000
FTUS43 KIWX 201400 AAA
TAFFWA
TAF AMD
KFWA 201414Z 2014/2112 21010KT P6SM VCSH SCT040 BKN080
      TEMPO 2015/2017 6SM -SHRA
     FM201700 24012KT P6SM SCT050
     FM202100 29012KT P6SM BKN035
     FM210600 30007KT P6SM OVC025=

USA.gov is the U.S. government's official web portal to all federal, state and local government web resources and services.